Map

Track Data

SID SEASON NUMBER BASIN SUBBASIN NAME ISO_TIME NATURE LAT LON WMO_WIND WMO_PRES WMO_AGENCY TRACK_TYPE DIST2LAND LANDFALL IFLAG USA_AGENCY USA_ATCF_ID USA_LAT USA_LON USA_RECORD USA_STATUS USA_WIND USA_PRES USA_SSHS USA_R34_NE USA_R34_SE USA_R34_SW USA_R34_NW USA_R50_NE USA_R50_SE USA_R50_SW USA_R50_NW USA_R64_NE USA_R64_SE USA_R64_SW USA_R64_NW USA_POCI USA_ROCI USA_RMW USA_EYE TOKYO_LAT TOKYO_LON TOKYO_GRADE TOKYO_WIND TOKYO_PRES TOKYO_R50_DIR TOKYO_R50_LONG TOKYO_R50_SHORT TOKYO_R30_DIR TOKYO_R30_LONG TOKYO_R30_SHORT TOKYO_LAND CMA_LAT CMA_LON CMA_CAT CMA_WIND CMA_PRES HKO_LAT HKO_LON HKO_CAT HKO_WIND HKO_PRES NEWDELHI_LAT NEWDELHI_LON NEWDELHI_GRADE NEWDELHI_WIND NEWDELHI_PRES NEWDELHI_CI NEWDELHI_DP NEWDELHI_POCI REUNION_LAT REUNION_LON REUNION_TYPE REUNION_WIND REUNION_PRES REUNION_TNUM REUNION_CI REUNION_RMW REUNION_R34_NE REUNION_R34_SE REUNION_R34_SW REUNION_R34_NW REUNION_R50_NE REUNION_R50_SE REUNION_R50_SW REUNION_R50_NW REUNION_R64_NE REUNION_R64_SE REUNION_R64_SW REUNION_R64_NW BOM_LAT BOM_LON BOM_TYPE BOM_WIND BOM_PRES BOM_TNUM BOM_CI BOM_RMW BOM_R34_NE BOM_R34_SE BOM_R34_SW BOM_R34_NW BOM_R50_NE BOM_R50_SE BOM_R50_SW BOM_R50_NW BOM_R64_NE BOM_R64_SE BOM_R64_SW BOM_R64_NW BOM_ROCI BOM_POCI BOM_EYE BOM_POS_METHOD BOM_PRES_METHOD NADI_LAT NADI_LON NADI_CAT NADI_WIND NADI_PRES WELLINGTON_LAT WELLINGTON_LON WELLINGTON_WIND WELLINGTON_PRES DS824_LAT DS824_LON DS824_STAGE DS824_WIND DS824_PRES TD9636_LAT TD9636_LON TD9636_STAGE TD9636_WIND TD9636_PRES TD9635_LAT TD9635_LON TD9635_WIND TD9635_PRES TD9635_ROCI NEUMANN_LAT NEUMANN_LON NEUMANN_CLASS NEUMANN_WIND NEUMANN_PRES MLC_LAT MLC_LON MLC_CLASS MLC_WIND MLC_PRES USA_GUST BOM_GUST BOM_GUST_PER REUNION_GUST REUNION_GUST_PER USA_SEAHGT USA_SEARAD_NE USA_SEARAD_SE USA_SEARAD_SW USA_SEARAD_NW STORM_SPEED STORM_DIR
1893248N28307 1893 41 NA NA NOT_NAMED 1893-09-05 00:00:00 TS 27.8000 -53.2000 main 1644 1643 _____________O -1 27.8000 -53.2000 TD 25 5 341
1893248N28307 1893 41 NA NA NOT_NAMED 1893-09-05 03:00:00 TS 28.0475 -53.2999 main 1650 1650 _____________P -1 28.0475 -53.2999 TD 27 5 340
1893248N28307 1893 41 NA NA NOT_NAMED 1893-09-05 06:00:00 TS 28.3000 -53.4000 main 1663 1662 _____________O -1 28.3000 -53.4000 TD 30 5 341
1893248N28307 1893 41 NA NA NOT_NAMED 1893-09-05 09:00:00 TS 28.5575 -53.5000 main 1677 1677 _____________P -1 28.5575 -53.5000 TD 32 5 340
1893248N28307 1893 41 NA NA NOT_NAMED 1893-09-05 12:00:00 TS 28.8000 -53.6000 main 1684 1684 _____________O -1 28.8000 -53.6000 TS 35 5 338
1893248N28307 1893 41 NA NA NOT_NAMED 1893-09-05 15:00:00 TS 29.0150 -53.7075 main 1691 1691 _____________P -1 29.0150 -53.7075 TS 37 4 336
1893248N28307 1893 41 NA NA NOT_NAMED 1893-09-05 18:00:00 TS 29.2000 -53.8000 main 1699 1699 _____________O -1 29.2000 -53.8000 TS 40 4 339
1893248N28307 1893 41 NA NA NOT_NAMED 1893-09-05 21:00:00 TS 29.3500 -53.8501 main 1700 1700 _____________P -1 29.3500 -53.8501 TS 42 3 344
1893248N28307 1893 41 NA NA NOT_NAMED 1893-09-06 00:00:00 TS 29.5000 -53.9000 main 1715 1715 _____________O -1 29.5000 -53.9000 TS 45 4 340
1893248N28307 1893 41 NA NA NOT_NAMED 1893-09-06 03:00:00 TS 29.7000 -53.9999 main 1724 1724 _____________P -1 29.7000 -53.9999 TS 47 4 337
1893248N28307 1893 41 NA NA NOT_NAMED 1893-09-06 06:00:00 TS 29.9000 -54.1000 main 1732 1732 _____________O -1 29.9000 -54.1000 TS 50 4 340
1893248N28307 1893 41 NA NA NOT_NAMED 1893-09-06 09:00:00 TS 30.0650 -54.1501 main 1742 1742 _____________P -1 30.0650 -54.1501 TS 52 3 344
1893248N28307 1893 41 NA NA NOT_NAMED 1893-09-06 12:00:00 TS 30.2000 -54.2000 main 1750 1750 _____________O -1 30.2000 -54.2000 TS 55 3 332
1893248N28307 1893 41 NA NA NOT_NAMED 1893-09-06 15:00:00 TS 30.3150 -54.3000 main 1751 1746 _____________P -1 30.3150 -54.3000 TS 57 3 319
1893248N28307 1893 41 NA NA NOT_NAMED 1893-09-06 18:00:00 TS 30.4000 -54.4000 main 1746 1732 _____________O -1 30.4000 -54.4000 TS 60 2 316
1893248N28307 1893 41 NA NA NOT_NAMED 1893-09-06 21:00:00 TS 30.4575 -54.4575 main 1732 1732 _____________P -1 30.4575 -54.4575 TS 60 1 320
1893248N28307 1893 41 NA NA NOT_NAMED 1893-09-07 00:00:00 TS 30.5000 -54.5000 main 1732 1732 _____________O -1 30.5000 -54.5000 TS 60 1 321
1893248N28307 1893 41 NA NA NOT_NAMED 1893-09-07 03:00:00 TS 30.5500 -54.5500 main 1722 1717 _____________P -1 30.5500 -54.5500 TS 65 1 320
1893248N28307 1893 41 NA NA NOT_NAMED 1893-09-07 06:00:00 TS 30.6000 -54.6000 main 1717 1717 _____________O -1 30.6000 -54.6000 HU 70 1 327
1893248N28307 1893 41 NA NA NOT_NAMED 1893-09-07 09:00:00 TS 30.6500 -54.6350 main 1717 1703 _____________P -1 30.6500 -54.6350 HU 70 1 320
1893248N28307 1893 41 NA NA NOT_NAMED 1893-09-07 12:00:00 TS 30.7000 -54.7000 main 1703 1698 _____________O -1 30.7000 -54.7000 HU 70 2 300
1893248N28307 1893 41 NA NA NOT_NAMED 1893-09-07 15:00:00 TS 30.7500 -54.8425 main 1688 1679 _____________P -1 30.7500 -54.8425 HU 70 3 291
1893248N28307 1893 41 NA NA NOT_NAMED 1893-09-07 18:00:00 TS 30.8000 -55.0000 main 1679 1664 _____________O -1 30.8000 -55.0000 HU 70 3 297
1893248N28307 1893 41 NA NA NOT_NAMED 1893-09-07 21:00:00 TS 30.8650 -55.1075 main 1664 1660 _____________P -1 30.8650 -55.1075 HU 70 2 300
1893248N28307 1893 41 NA NA NOT_NAMED 1893-09-08 00:00:00 TS 30.9000 -55.2000 main 1660 1655 _____________O -1 30.9000 -55.2000 HU 70 2 270
1893248N28307 1893 41 NA NA NOT_NAMED 1893-09-08 03:00:00 TS 30.8650 -55.3000 main 1655 1655 _____________P -1 30.8650 -55.3000 HU 70 2 240
1893248N28307 1893 41 NA NA NOT_NAMED 1893-09-08 06:00:00 TS 30.8000 -55.4000 main 1660 1655 _____________O -1 30.8000 -55.4000 HU 70 2 236
1893248N28307 1893 41 NA NA NOT_NAMED 1893-09-08 09:00:00 TS 30.7575 -55.4924 main 1655 1655 _____________P -1 30.7575 -55.4924 HU 70 2 240
1893248N28307 1893 41 NA NA NOT_NAMED 1893-09-08 12:00:00 TS 30.7000 -55.6000 main 1661 1656 _____________O -1 30.7000 -55.6000 HU 70 3 235
1893248N28307 1893 41 NA NA NOT_NAMED 1893-09-08 15:00:00 TS 30.6000 -55.7501 main 1662 1662 _____________P -1 30.6000 -55.7501 HU 70 3 233
1893248N28307 1893 41 NA NA NOT_NAMED 1893-09-08 18:00:00 TS 30.5000 -55.9000 main 1667 1662 _____________O -1 30.5000 -55.9000 HU 70 3 235
1893248N28307 1893 41 NA NA NOT_NAMED 1893-09-08 21:00:00 TS 30.4500 -55.9999 main 1654 1648 _____________P -1 30.4500 -55.9999 HU 70 2 240
1893248N28307 1893 41 NA NA NOT_NAMED 1893-09-09 00:00:00 TS 30.4000 -56.1000 main 1648 1633 _____________O -1 30.4000 -56.1000 HU 70 3 235
1893248N28307 1893 41 NA NA NOT_NAMED 1893-09-09 03:00:00 TS 30.3000 -56.2501 main 1627 1612 _____________P -1 30.3000 -56.2501 HU 70 3 233
1893248N28307 1893 41 NA NA NOT_NAMED 1893-09-09 06:00:00 TS 30.2000 -56.4000 main 1612 1607 _____________O -1 30.2000 -56.4000 HU 70 3 235
1893248N28307 1893 41 NA NA NOT_NAMED 1893-09-09 09:00:00 TS 30.1500 -56.4999 main 1598 1592 _____________P -1 30.1500 -56.4999 HU 70 2 240
1893248N28307 1893 41 NA NA NOT_NAMED 1893-09-09 12:00:00 TS 30.1000 -56.6000 main 1592 1577 _____________O -1 30.1000 -56.6000 HU 70 3 234
1893248N28307 1893 41 NA NA NOT_NAMED 1893-09-09 15:00:00 TS 30.0000 -56.7426 main 1577 1557 _____________P -1 30.0000 -56.7426 HU 70 3 233
1893248N28307 1893 41 NA NA NOT_NAMED 1893-09-09 18:00:00 TS 29.9000 -56.9000 main 1557 1542 _____________O -1 29.9000 -56.9000 HU 70 3 238
1893248N28307 1893 41 NA NA NOT_NAMED 1893-09-09 21:00:00 TS 29.8350 -57.0500 main 1542 1531 _____________P -1 29.8350 -57.0500 HU 70 3 249
1893248N28307 1893 41 NA NA NOT_NAMED 1893-09-10 00:00:00 TS 29.8000 -57.2000 main 1531 1525 _____________O -1 29.8000 -57.2000 HU 70 3 263
1893248N28307 1893 41 NA NA NOT_NAMED 1893-09-10 03:00:00 TS 29.8000 -57.3574 main 1520 1514 _____________P -1 29.8000 -57.3574 HU 70 3 270
1893248N28307 1893 41 NA NA NOT_NAMED 1893-09-10 06:00:00 TS 29.8000 -57.5000 main 1514 1500 _____________O -1 29.8000 -57.5000 HU 70 2 252
1893248N28307 1893 41 NA NA NOT_NAMED 1893-09-10 09:00:00 TS 29.7275 -57.6226 main 1500 1494 _____________P -1 29.7275 -57.6226 HU 70 2 240
1893248N28307 1893 41 NA NA NOT_NAMED 1893-09-10 12:00:00 TS 29.7000 -57.7000 main 1494 1494 _____________O -1 29.7000 -57.7000 HU 70 1 326
1893248N28307 1893 41 NA NA NOT_NAMED 1893-09-10 15:00:00 TS 29.8200 -57.7075 main 1503 1503 _____________P -1 29.8200 -57.7075 HU 67 3 0
1893248N28307 1893 41 NA NA NOT_NAMED 1893-09-10 18:00:00 TS 30.0000 -57.7000 main 1522 1522 _____________O -1 30.0000 -57.7000 HU 65 3 352
1893248N28307 1893 41 NA NA NOT_NAMED 1893-09-10 21:00:00 TS 30.1500 -57.7499 main 1541 1535 _____________P -1 30.1500 -57.7499 HU 62 3 344
1893248N28307 1893 41 NA NA NOT_NAMED 1893-09-11 00:00:00 TS 30.3000 -57.8000 main 1545 1545 _____________O -1 30.3000 -57.8000 TS 60 3 351
1893248N28307 1893 41 NA NA NOT_NAMED 1893-09-11 03:00:00 TS 30.4500 -57.8075 main 1564 1554 _____________P -1 30.4500 -57.8075 TS 57 3 0
1893248N28307 1893 41 NA NA NOT_NAMED 1893-09-11 06:00:00 TS 30.6000 -57.8000 main 1573 1567 _____________O -1 30.6000 -57.8000 TS 55 3 345
1893248N28307 1893 41 NA NA NOT_NAMED 1893-09-11 09:00:00 TS 30.7121 -57.8891 main 1567 1550 _____________P -1 30.7121 -57.8891 TS 52 3 0
1893248N28307 1893 41 NA NA NOT_NAMED 1893-09-11 12:00:00 TS 30.9000 -57.8000 main 1550 1535 _____________O -1 30.9000 -57.8000 TS 50 7 43
1893248N28307 1893 41 NA NA NOT_NAMED 1893-09-11 15:00:00 TS 31.2629 -57.2982 main 1528 1513 _____________P -1 31.2629 -57.2982 TS 47 13 52
1893248N28307 1893 41 NA NA NOT_NAMED 1893-09-11 18:00:00 TS 31.7000 -56.6000 main 1518 1501 _____________O -1 31.7000 -56.6000 TS 45 14 53
1893248N28307 1893 41 NA NA NOT_NAMED 1893-09-11 21:00:00 TS 32.0990 -56.0014 main 1506 1496 _____________P -1 32.0990 -56.0014 TS 45 14 54
1893248N28307 1893 41 NA NA NOT_NAMED 1893-09-12 00:00:00 TS 32.5000 -55.3000 main 1498 1481 _____________O -1 32.5000 -55.3000 TS 45 16 59
1893248N28307 1893 41 NA NA NOT_NAMED 1893-09-12 03:00:00 TS 32.9077 -54.3950 main 1484 1474 _____________P -1 32.9077 -54.3950 TS 45 18 63
1893248N28307 1893 41 NA NA NOT_NAMED 1893-09-12 06:00:00 TS 33.3000 -53.4000 main 1478 1447 _____________O -1 33.3000 -53.4000 TS 45 17 65
1893248N28307 1893 41 NA NA NOT_NAMED 1893-09-12 09:00:00 TS 33.6305 -52.5734 main 1447 1408 _____________P -1 33.6305 -52.5734 TS 45 17 66
1893248N28307 1893 41 NA NA NOT_NAMED 1893-09-12 12:00:00 TS 34.0000 -51.5000 main 1409 1374 _____________O -1 34.0000 -51.5000 TS 45 24 69
1893248N28307 1893 41 NA NA NOT_NAMED 1893-09-12 15:00:00 TS 34.4793 -49.8355 main 1376 1361 _____________P -1 34.4793 -49.8355 TS 45 31 71
1893248N28307 1893 41 NA NA NOT_NAMED 1893-09-12 18:00:00 TS 35.0000 -47.9000 main 1364 1359 _____________O -1 35.0000 -47.9000 TS 45 33 72
1893248N28307 1893 41 NA NA NOT_NAMED 1893-09-12 21:00:00 TS 35.4754 -46.0464 main 1372 1372 _____________P -1 35.4754 -46.0464 TS 45 32 72
1893248N28307 1893 41 NA NA NOT_NAMED 1893-09-13 00:00:00 TS 36.0000 -44.2000 main 1395 1394 _____________O -1 36.0000 -44.2000 TS 45 32 69
1893248N28307 1893 41 NA NA NOT_NAMED 1893-09-13 03:00:00 TS 36.5946 -42.3887 main 1424 1424 _____________P -1 36.5946 -42.3887 TS 42 32 66
1893248N28307 1893 41 NA NA NOT_NAMED 1893-09-13 06:00:00 TS 37.3000 -40.6000 main 1462 1462 _____________O -1 37.3000 -40.6000 TS 40 32 62
1893248N28307 1893 41 NA NA NOT_NAMED 1893-09-13 09:00:00 TS 38.0935 -38.8248 main 1507 1507 _____________P -1 38.0935 -38.8248 TS 40 33 59
1893248N28307 1893 41 NA NA NOT_NAMED 1893-09-13 12:00:00 TS 39.0000 -37.0000 main 1556 1556 _____________O -1 39.0000 -37.0000 TS 40 35 57
1893248N28307 1893 41 NA NA NOT_NAMED 1893-09-13 15:00:00 TS 39.9880 -35.0536 main 1621 1621 _____________P -1 39.9880 -35.0536 TS 37 37 57
1893248N28307 1893 41 NA NA NOT_NAMED 1893-09-13 18:00:00 ET 41.0000 -33.0000 main 1708 _____________O -1 41.0000 -33.0000 EX 35 37 57

About IBTrACS Database

This database is a web-friendly format of International Best Track Archive for Climate Stewardship (IBTrACS), a global best track data archive curated by NOAA dating back to 1842.

Updated: 2021-12-06